sensor_id;sensor_type;location;lat;lon;timestamp;P1;durP1;ratioP1;P2;durP2;ratioP2
16878;SDS011;8556;52.218;9.884;2023-02-03T00:01:51;14.50;;;7.60;;
16878;SDS011;8556;52.218;9.884;2023-02-03T00:04:18;15.10;;;8.20;;
16878;SDS011;8556;52.218;9.884;2023-02-03T00:06:45;17.33;;;9.10;;
16878;SDS011;8556;52.218;9.884;2023-02-03T00:09:13;17.33;;;9.13;;
16878;SDS011;8556;52.218;9.884;2023-02-03T00:11:41;18.47;;;10.03;;
16878;SDS011;8556;52.218;9.884;2023-02-03T00:14:08;19.07;;;11.13;;
16878;SDS011;8556;52.218;9.884;2023-02-03T00:16:35;19.60;;;11.37;;
16878;SDS011;8556;52.218;9.884;2023-02-03T00:19:02;21.67;;;11.57;;
16878;SDS011;8556;52.218;9.884;2023-02-03T00:21:29;24.43;;;11.93;;
16878;SDS011;8556;52.218;9.884;2023-02-03T00:23:56;20.83;;;11.83;;
16878;SDS011;8556;52.218;9.884;2023-02-03T00:26:23;24.07;;;13.90;;
16878;SDS011;8556;52.218;9.884;2023-02-03T00:28:54;23.17;;;13.63;;
16878;SDS011;8556;52.218;9.884;2023-02-03T00:31:21;26.97;;;14.90;;
16878;SDS011;8556;52.218;9.884;2023-02-03T00:33:52;27.03;;;15.13;;
16878;SDS011;8556;52.218;9.884;2023-02-03T00:36:20;25.87;;;14.60;;
16878;SDS011;8556;52.218;9.884;2023-02-03T00:38:47;24.70;;;14.80;;
16878;SDS011;8556;52.218;9.884;2023-02-03T00:41:14;23.77;;;14.00;;
16878;SDS011;8556;52.218;9.884;2023-02-03T00:43:41;24.23;;;14.53;;
16878;SDS011;8556;52.218;9.884;2023-02-03T00:46:09;23.70;;;13.67;;
16878;SDS011;8556;52.218;9.884;2023-02-03T00:48:36;30.40;;;16.83;;
16878;SDS011;8556;52.218;9.884;2023-02-03T00:51:03;23.80;;;15.07;;
16878;SDS011;8556;52.218;9.884;2023-02-03T00:53:31;26.87;;;15.53;;
16878;SDS011;8556;52.218;9.884;2023-02-03T00:55:58;28.33;;;17.57;;
16878;SDS011;8556;52.218;9.884;2023-02-03T00:58:25;28.40;;;16.17;;
16878;SDS011;8556;52.218;9.884;2023-02-03T01:00:52;26.13;;;16.13;;
16878;SDS011;8556;52.218;9.884;2023-02-03T01:03:22;27.50;;;16.33;;
16878;SDS011;8556;52.218;9.884;2023-02-03T01:05:49;29.60;;;17.47;;
16878;SDS011;8556;52.218;9.884;2023-02-03T01:08:16;26.33;;;16.33;;
16878;SDS011;8556;52.218;9.884;2023-02-03T01:10:43;28.57;;;17.40;;
16878;SDS011;8556;52.218;9.884;2023-02-03T01:13:09;28.03;;;15.93;;
16878;SDS011;8556;52.218;9.884;2023-02-03T01:15:36;27.43;;;16.43;;
16878;SDS011;8556;52.218;9.884;2023-02-03T01:18:03;28.43;;;15.87;;
16878;SDS011;8556;52.218;9.884;2023-02-03T01:20:32;25.53;;;15.73;;
16878;SDS011;8556;52.218;9.884;2023-02-03T01:23:00;27.30;;;16.77;;
16878;SDS011;8556;52.218;9.884;2023-02-03T01:25:27;26.80;;;16.13;;
16878;SDS011;8556;52.218;9.884;2023-02-03T01:27:54;28.50;;;17.03;;
16878;SDS011;8556;52.218;9.884;2023-02-03T01:30:21;26.07;;;16.20;;
16878;SDS011;8556;52.218;9.884;2023-02-03T01:32:48;27.57;;;16.17;;
16878;SDS011;8556;52.218;9.884;2023-02-03T01:35:15;27.27;;;15.13;;
16878;SDS011;8556;52.218;9.884;2023-02-03T01:37:43;27.53;;;16.37;;
16878;SDS011;8556;52.218;9.884;2023-02-03T01:40:11;24.83;;;14.57;;
16878;SDS011;8556;52.218;9.884;2023-02-03T01:42:38;27.77;;;15.33;;
16878;SDS011;8556;52.218;9.884;2023-02-03T01:45:05;22.73;;;14.43;;
16878;SDS011;8556;52.218;9.884;2023-02-03T01:47:33;26.63;;;15.57;;
16878;SDS011;8556;52.218;9.884;2023-02-03T01:50:08;21.30;;;14.37;;
16878;SDS011;8556;52.218;9.884;2023-02-03T01:52:39;22.00;;;14.53;;
16878;SDS011;8556;52.218;9.884;2023-02-03T01:55:10;25.27;;;15.07;;
16878;SDS011;8556;52.218;9.884;2023-02-03T01:57:40;25.70;;;14.30;;
16878;SDS011;8556;52.218;9.884;2023-02-03T02:00:12;21.03;;;13.50;;
16878;SDS011;8556;52.218;9.884;2023-02-03T02:02:39;23.50;;;14.10;;
16878;SDS011;8556;52.218;9.884;2023-02-03T02:05:10;21.60;;;13.97;;
16878;SDS011;8556;52.218;9.884;2023-02-03T02:07:41;21.67;;;13.30;;
16878;SDS011;8556;52.218;9.884;2023-02-03T02:10:11;22.43;;;12.97;;
16878;SDS011;8556;52.218;9.884;2023-02-03T02:12:38;21.27;;;12.83;;
16878;SDS011;8556;52.218;9.884;2023-02-03T02:15:05;21.00;;;12.20;;
16878;SDS011;8556;52.218;9.884;2023-02-03T02:17:37;17.33;;;11.43;;
16878;SDS011;8556;52.218;9.884;2023-02-03T02:32:41;18.87;;;10.77;;
16878;SDS011;8556;52.218;9.884;2023-02-03T02:35:19;22.83;;;11.00;;
16878;SDS011;8556;52.218;9.884;2023-02-03T02:37:58;17.47;;;10.43;;
16878;SDS011;8556;52.218;9.884;2023-02-03T02:40:30;17.03;;;10.27;;
16878;SDS011;8556;52.218;9.884;2023-02-03T02:43:03;20.13;;;11.47;;
16878;SDS011;8556;52.218;9.884;2023-02-03T02:45:38;16.87;;;10.43;;
16878;SDS011;8556;52.218;9.884;2023-02-03T02:48:14;18.90;;;10.70;;
16878;SDS011;8556;52.218;9.884;2023-02-03T02:50:48;14.43;;;9.37;;
16878;SDS011;8556;52.218;9.884;2023-02-03T02:53:19;17.50;;;9.63;;
16878;SDS011;8556;52.218;9.884;2023-02-03T02:55:48;16.40;;;10.10;;
16878;SDS011;8556;52.218;9.884;2023-02-03T02:58:18;16.27;;;9.83;;
16878;SDS011;8556;52.218;9.884;2023-02-03T03:00:46;17.93;;;9.90;;
16878;SDS011;8556;52.218;9.884;2023-02-03T03:03:15;14.60;;;9.80;;
16878;SDS011;8556;52.218;9.884;2023-02-03T03:05:46;18.20;;;10.30;;
16878;SDS011;8556;52.218;9.884;2023-02-03T03:08:18;18.47;;;9.30;;
16878;SDS011;8556;52.218;9.884;2023-02-03T03:10:48;16.37;;;9.70;;
16878;SDS011;8556;52.218;9.884;2023-02-03T03:13:19;22.33;;;10.10;;
16878;SDS011;8556;52.218;9.884;2023-02-03T03:15:50;14.80;;;9.10;;
16878;SDS011;8556;52.218;9.884;2023-02-03T03:18:22;17.93;;;9.13;;
16878;SDS011;8556;52.218;9.884;2023-02-03T03:20:52;15.57;;;9.63;;
16878;SDS011;8556;52.218;9.884;2023-02-03T03:23:30;15.40;;;9.60;;
16878;SDS011;8556;52.218;9.884;2023-02-03T03:26:02;16.27;;;10.30;;
16878;SDS011;8556;52.218;9.884;2023-02-03T03:28:36;18.13;;;9.27;;
16878;SDS011;8556;52.218;9.884;2023-02-03T03:31:08;18.70;;;9.60;;
16878;SDS011;8556;52.218;9.884;2023-02-03T03:33:36;15.53;;;9.90;;
16878;SDS011;8556;52.218;9.884;2023-02-03T03:36:05;15.43;;;9.40;;
16878;SDS011;8556;52.218;9.884;2023-02-03T03:38:42;18.97;;;9.27;;
16878;SDS011;8556;52.218;9.884;2023-02-03T03:41:11;16.03;;;8.80;;
16878;SDS011;8556;52.218;9.884;2023-02-03T03:43:44;15.77;;;8.73;;
16878;SDS011;8556;52.218;9.884;2023-02-03T03:46:13;14.73;;;8.67;;
16878;SDS011;8556;52.218;9.884;2023-02-03T03:48:47;13.93;;;7.63;;
16878;SDS011;8556;52.218;9.884;2023-02-03T03:51:18;14.47;;;8.90;;
16878;SDS011;8556;52.218;9.884;2023-02-03T03:53:49;15.47;;;8.83;;
16878;SDS011;8556;52.218;9.884;2023-02-03T03:56:18;13.93;;;8.60;;
16878;SDS011;8556;52.218;9.884;2023-02-03T03:58:51;15.63;;;9.00;;
16878;SDS011;8556;52.218;9.884;2023-02-03T04:01:19;15.83;;;9.67;;
16878;SDS011;8556;52.218;9.884;2023-02-03T04:03:51;15.93;;;8.67;;
16878;SDS011;8556;52.218;9.884;2023-02-03T04:06:23;15.70;;;8.60;;
16878;SDS011;8556;52.218;9.884;2023-02-03T04:08:50;14.07;;;8.67;;
16878;SDS011;8556;52.218;9.884;2023-02-03T04:11:16;12.33;;;8.40;;
16878;SDS011;8556;52.218;9.884;2023-02-03T04:13:57;14.97;;;8.47;;
16878;SDS011;8556;52.218;9.884;2023-02-03T04:16:24;13.73;;;8.37;;
16878;SDS011;8556;52.218;9.884;2023-02-03T04:18:53;12.23;;;7.53;;
16878;SDS011;8556;52.218;9.884;2023-02-03T04:21:20;13.37;;;8.33;;
16878;SDS011;8556;52.218;9.884;2023-02-03T04:23:47;14.17;;;8.30;;
16878;SDS011;8556;52.218;9.884;2023-02-03T04:26:15;13.03;;;8.23;;
16878;SDS011;8556;52.218;9.884;2023-02-03T04:28:42;12.40;;;7.93;;
16878;SDS011;8556;52.218;9.884;2023-02-03T04:31:12;13.63;;;8.20;;
16878;SDS011;8556;52.218;9.884;2023-02-03T04:33:39;16.10;;;8.20;;
16878;SDS011;8556;52.218;9.884;2023-02-03T04:36:07;14.53;;;7.83;;
16878;SDS011;8556;52.218;9.884;2023-02-03T04:38:35;12.43;;;7.77;;
16878;SDS011;8556;52.218;9.884;2023-02-03T04:41:02;16.73;;;8.37;;
16878;SDS011;8556;52.218;9.884;2023-02-03T04:43:29;15.13;;;8.47;;
16878;SDS011;8556;52.218;9.884;2023-02-03T04:45:57;12.97;;;7.83;;
16878;SDS011;8556;52.218;9.884;2023-02-03T04:48:24;14.07;;;8.40;;
16878;SDS011;8556;52.218;9.884;2023-02-03T04:50:51;13.40;;;8.17;;
16878;SDS011;8556;52.218;9.884;2023-02-03T04:53:20;13.40;;;8.10;;
16878;SDS011;8556;52.218;9.884;2023-02-03T04:55:47;14.23;;;8.10;;
16878;SDS011;8556;52.218;9.884;2023-02-03T04:58:14;15.80;;;9.57;;
16878;SDS011;8556;52.218;9.884;2023-02-03T05:00:41;15.93;;;8.87;;
16878;SDS011;8556;52.218;9.884;2023-02-03T05:03:08;16.37;;;8.20;;
16878;SDS011;8556;52.218;9.884;2023-02-03T05:05:35;15.00;;;8.87;;
16878;SDS011;8556;52.218;9.884;2023-02-03T05:08:02;13.73;;;8.87;;
16878;SDS011;8556;52.218;9.884;2023-02-03T05:10:30;14.80;;;9.17;;
16878;SDS011;8556;52.218;9.884;2023-02-03T05:12:57;17.83;;;9.17;;
16878;SDS011;8556;52.218;9.884;2023-02-03T05:15:24;17.00;;;8.43;;
16878;SDS011;8556;52.218;9.884;2023-02-03T05:17:51;16.90;;;9.43;;
16878;SDS011;8556;52.218;9.884;2023-02-03T05:20:18;13.20;;;8.50;;
16878;SDS011;8556;52.218;9.884;2023-02-03T05:22:45;15.93;;;9.00;;
16878;SDS011;8556;52.218;9.884;2023-02-03T05:25:12;20.70;;;9.60;;
16878;SDS011;8556;52.218;9.884;2023-02-03T05:27:41;15.43;;;9.07;;
16878;SDS011;8556;52.218;9.884;2023-02-03T05:30:09;14.53;;;9.27;;
16878;SDS011;8556;52.218;9.884;2023-02-03T05:32:36;14.63;;;8.83;;
16878;SDS011;8556;52.218;9.884;2023-02-03T05:35:03;17.00;;;8.80;;
16878;SDS011;8556;52.218;9.884;2023-02-03T05:37:31;13.13;;;8.27;;
16878;SDS011;8556;52.218;9.884;2023-02-03T05:39:57;14.67;;;8.33;;
16878;SDS011;8556;52.218;9.884;2023-02-03T05:42:46;15.03;;;7.70;;
16878;SDS011;8556;52.218;9.884;2023-02-03T05:45:12;15.30;;;9.07;;
16878;SDS011;8556;52.218;9.884;2023-02-03T05:47:39;13.93;;;7.03;;
16878;SDS011;8556;52.218;9.884;2023-02-03T05:50:07;11.70;;;7.20;;
16878;SDS011;8556;52.218;9.884;2023-02-03T05:52:34;22.40;;;10.73;;
16878;SDS011;8556;52.218;9.884;2023-02-03T05:55:01;18.17;;;10.23;;
16878;SDS011;8556;52.218;9.884;2023-02-03T05:57:28;13.53;;;8.20;;
16878;SDS011;8556;52.218;9.884;2023-02-03T05:59:56;14.77;;;8.10;;
16878;SDS011;8556;52.218;9.884;2023-02-03T06:02:23;14.00;;;7.90;;
16878;SDS011;8556;52.218;9.884;2023-02-03T06:04:50;12.77;;;7.50;;
16878;SDS011;8556;52.218;9.884;2023-02-03T06:07:17;12.30;;;7.60;;
16878;SDS011;8556;52.218;9.884;2023-02-03T06:09:44;13.43;;;7.20;;
16878;SDS011;8556;52.218;9.884;2023-02-03T06:12:11;16.00;;;8.07;;
16878;SDS011;8556;52.218;9.884;2023-02-03T06:14:40;13.20;;;7.30;;
16878;SDS011;8556;52.218;9.884;2023-02-03T06:17:08;15.20;;;8.50;;
16878;SDS011;8556;52.218;9.884;2023-02-03T06:19:35;17.47;;;8.07;;
16878;SDS011;8556;52.218;9.884;2023-02-03T06:22:02;11.30;;;6.30;;
16878;SDS011;8556;52.218;9.884;2023-02-03T06:24:29;12.20;;;6.03;;
16878;SDS011;8556;52.218;9.884;2023-02-03T06:26:56;15.93;;;7.40;;
16878;SDS011;8556;52.218;9.884;2023-02-03T06:29:23;13.30;;;6.97;;
16878;SDS011;8556;52.218;9.884;2023-02-03T06:31:50;18.37;;;7.73;;
16878;SDS011;8556;52.218;9.884;2023-02-03T06:34:18;13.57;;;7.00;;
16878;SDS011;8556;52.218;9.884;2023-02-03T06:36:45;12.40;;;6.87;;
16878;SDS011;8556;52.218;9.884;2023-02-03T06:39:13;12.50;;;6.67;;
16878;SDS011;8556;52.218;9.884;2023-02-03T06:41:40;16.90;;;8.03;;
16878;SDS011;8556;52.218;9.884;2023-02-03T06:44:07;10.53;;;6.27;;
16878;SDS011;8556;52.218;9.884;2023-02-03T06:46:34;11.57;;;6.07;;
16878;SDS011;8556;52.218;9.884;2023-02-03T06:49:01;11.47;;;6.00;;
16878;SDS011;8556;52.218;9.884;2023-02-03T06:51:29;11.10;;;6.13;;
16878;SDS011;8556;52.218;9.884;2023-02-03T06:53:57;11.67;;;6.57;;
16878;SDS011;8556;52.218;9.884;2023-02-03T06:56:24;10.07;;;5.47;;
16878;SDS011;8556;52.218;9.884;2023-02-03T06:58:51;11.57;;;6.07;;
16878;SDS011;8556;52.218;9.884;2023-02-03T07:01:18;10.47;;;5.83;;
16878;SDS011;8556;52.218;9.884;2023-02-03T07:03:45;10.13;;;5.43;;
16878;SDS011;8556;52.218;9.884;2023-02-03T07:06:13;10.00;;;5.40;;
16878;SDS011;8556;52.218;9.884;2023-02-03T07:08:41;8.90;;;5.13;;
16878;SDS011;8556;52.218;9.884;2023-02-03T07:11:08;11.80;;;6.17;;
16878;SDS011;8556;52.218;9.884;2023-02-03T07:13:35;9.87;;;5.40;;
16878;SDS011;8556;52.218;9.884;2023-02-03T07:16:02;9.57;;;5.73;;
16878;SDS011;8556;52.218;9.884;2023-02-03T07:18:29;8.63;;;5.37;;
16878;SDS011;8556;52.218;9.884;2023-02-03T07:20:55;12.43;;;5.97;;
16878;SDS011;8556;52.218;9.884;2023-02-03T07:23:22;10.20;;;5.60;;
16878;SDS011;8556;52.218;9.884;2023-02-03T07:25:50;8.17;;;5.63;;
16878;SDS011;8556;52.218;9.884;2023-02-03T07:28:17;8.93;;;5.33;;
16878;SDS011;8556;52.218;9.884;2023-02-03T07:30:46;9.07;;;5.30;;
16878;SDS011;8556;52.218;9.884;2023-02-03T07:33:13;7.70;;;4.70;;
16878;SDS011;8556;52.218;9.884;2023-02-03T07:35:40;9.10;;;5.33;;
16878;SDS011;8556;52.218;9.884;2023-02-03T07:38:07;6.93;;;5.43;;
16878;SDS011;8556;52.218;9.884;2023-02-03T07:40:34;8.90;;;5.47;;
16878;SDS011;8556;52.218;9.884;2023-02-03T07:43:02;7.97;;;5.33;;
16878;SDS011;8556;52.218;9.884;2023-02-03T07:45:29;8.13;;;5.40;;
16878;SDS011;8556;52.218;9.884;2023-02-03T07:47:56;9.07;;;4.27;;
16878;SDS011;8556;52.218;9.884;2023-02-03T07:50:23;6.23;;;4.60;;
16878;SDS011;8556;52.218;9.884;2023-02-03T07:52:49;8.23;;;4.23;;
16878;SDS011;8556;52.218;9.884;2023-02-03T07:55:16;5.33;;;3.60;;
16878;SDS011;8556;52.218;9.884;2023-02-03T07:57:43;6.07;;;3.90;;
16878;SDS011;8556;52.218;9.884;2023-02-03T08:00:12;7.10;;;4.10;;
16878;SDS011;8556;52.218;9.884;2023-02-03T08:02:41;4.00;;;3.00;;
16878;SDS011;8556;52.218;9.884;2023-02-03T08:05:08;5.03;;;3.10;;
16878;SDS011;8556;52.218;9.884;2023-02-03T08:07:36;4.53;;;3.10;;
16878;SDS011;8556;52.218;9.884;2023-02-03T08:10:03;3.30;;;2.70;;
16878;SDS011;8556;52.218;9.884;2023-02-03T08:12:31;4.20;;;2.87;;
16878;SDS011;8556;52.218;9.884;2023-02-03T08:14:58;3.13;;;2.83;;
16878;SDS011;8556;52.218;9.884;2023-02-03T08:17:26;3.47;;;3.10;;
16878;SDS011;8556;52.218;9.884;2023-02-03T08:19:53;4.20;;;2.83;;
16878;SDS011;8556;52.218;9.884;2023-02-03T08:22:20;5.60;;;3.30;;
16878;SDS011;8556;52.218;9.884;2023-02-03T08:24:47;3.53;;;2.70;;
16878;SDS011;8556;52.218;9.884;2023-02-03T08:27:14;4.30;;;3.20;;
16878;SDS011;8556;52.218;9.884;2023-02-03T08:29:42;5.73;;;3.23;;
16878;SDS011;8556;52.218;9.884;2023-02-03T08:32:10;4.23;;;3.00;;
16878;SDS011;8556;52.218;9.884;2023-02-03T08:34:38;4.47;;;3.20;;
16878;SDS011;8556;52.218;9.884;2023-02-03T08:37:06;3.57;;;2.97;;
16878;SDS011;8556;52.218;9.884;2023-02-03T08:39:33;5.53;;;2.93;;
16878;SDS011;8556;52.218;9.884;2023-02-03T08:42:00;4.37;;;2.70;;
16878;SDS011;8556;52.218;9.884;2023-02-03T08:44:28;3.40;;;2.70;;
16878;SDS011;8556;52.218;9.884;2023-02-03T08:46:55;7.20;;;3.27;;
16878;SDS011;8556;52.218;9.884;2023-02-03T08:49:22;6.23;;;3.50;;
16878;SDS011;8556;52.218;9.884;2023-02-03T08:51:52;5.13;;;3.30;;
16878;SDS011;8556;52.218;9.884;2023-02-03T08:54:20;7.37;;;3.50;;
16878;SDS011;8556;52.218;9.884;2023-02-03T08:56:47;6.67;;;4.20;;
16878;SDS011;8556;52.218;9.884;2023-02-03T08:59:14;6.27;;;4.00;;
16878;SDS011;8556;52.218;9.884;2023-02-03T09:01:41;7.13;;;4.93;;
16878;SDS011;8556;52.218;9.884;2023-02-03T09:04:09;7.40;;;5.00;;
16878;SDS011;8556;52.218;9.884;2023-02-03T09:06:36;7.13;;;4.70;;
16878;SDS011;8556;52.218;9.884;2023-02-03T09:09:05;9.27;;;5.47;;
16878;SDS011;8556;52.218;9.884;2023-02-03T09:11:32;8.17;;;4.93;;
16878;SDS011;8556;52.218;9.884;2023-02-03T09:13:59;11.53;;;6.70;;
16878;SDS011;8556;52.218;9.884;2023-02-03T09:16:25;16.13;;;8.03;;
16878;SDS011;8556;52.218;9.884;2023-02-03T09:18:54;12.07;;;6.07;;
16878;SDS011;8556;52.218;9.884;2023-02-03T09:21:21;11.90;;;5.87;;
16878;SDS011;8556;52.218;9.884;2023-02-03T09:23:49;10.80;;;6.27;;
16878;SDS011;8556;52.218;9.884;2023-02-03T09:26:17;9.90;;;6.23;;
16878;SDS011;8556;52.218;9.884;2023-02-03T09:28:44;7.47;;;4.97;;
16878;SDS011;8556;52.218;9.884;2023-02-03T09:31:11;9.50;;;5.70;;
16878;SDS011;8556;52.218;9.884;2023-02-03T09:33:41;9.77;;;4.70;;
16878;SDS011;8556;52.218;9.884;2023-02-03T09:36:09;9.63;;;4.73;;
16878;SDS011;8556;52.218;9.884;2023-02-03T09:38:36;9.23;;;5.07;;
16878;SDS011;8556;52.218;9.884;2023-02-03T09:41:06;7.30;;;4.10;;
16878;SDS011;8556;52.218;9.884;2023-02-03T09:43:47;9.50;;;4.53;;
16878;SDS011;8556;52.218;9.884;2023-02-03T09:46:17;9.13;;;4.77;;
16878;SDS011;8556;52.218;9.884;2023-02-03T09:48:48;10.87;;;4.33;;
16878;SDS011;8556;52.218;9.884;2023-02-03T09:51:19;8.93;;;4.20;;
16878;SDS011;8556;52.218;9.884;2023-02-03T09:53:49;10.27;;;3.87;;
16878;SDS011;8556;52.218;9.884;2023-02-03T09:56:24;6.10;;;3.50;;
16878;SDS011;8556;52.218;9.884;2023-02-03T09:58:55;7.53;;;3.60;;
16878;SDS011;8556;52.218;9.884;2023-02-03T10:01:22;10.60;;;4.23;;
16878;SDS011;8556;52.218;9.884;2023-02-03T10:03:54;7.57;;;3.90;;
16878;SDS011;8556;52.218;9.884;2023-02-03T10:06:30;6.90;;;3.50;;
16878;SDS011;8556;52.218;9.884;2023-02-03T10:09:05;7.07;;;3.10;;
16878;SDS011;8556;52.218;9.884;2023-02-03T10:11:45;9.37;;;3.37;;
16878;SDS011;8556;52.218;9.884;2023-02-03T10:14:41;7.87;;;3.10;;
16878;SDS011;8556;52.218;9.884;2023-02-03T10:17:20;4.33;;;2.40;;
16878;SDS011;8556;52.218;9.884;2023-02-03T10:19:55;8.77;;;3.07;;
16878;SDS011;8556;52.218;9.884;2023-02-03T10:22:28;5.93;;;2.10;;
16878;SDS011;8556;52.218;9.884;2023-02-03T10:24:58;11.20;;;2.87;;
16878;SDS011;8556;52.218;9.884;2023-02-03T10:27:28;4.70;;;2.20;;
16878;SDS011;8556;52.218;9.884;2023-02-03T10:29:59;5.03;;;1.90;;
16878;SDS011;8556;52.218;9.884;2023-02-03T10:32:32;7.40;;;2.50;;
16878;SDS011;8556;52.218;9.884;2023-02-03T10:35:00;5.60;;;2.07;;
16878;SDS011;8556;52.218;9.884;2023-02-03T10:37:28;6.87;;;2.00;;
16878;SDS011;8556;52.218;9.884;2023-02-03T10:39:56;3.93;;;1.60;;
16878;SDS011;8556;52.218;9.884;2023-02-03T10:42:24;9.83;;;2.60;;
16878;SDS011;8556;52.218;9.884;2023-02-03T10:45:13;6.63;;;1.53;;
16878;SDS011;8556;52.218;9.884;2023-02-03T10:47:41;7.83;;;1.80;;
16878;SDS011;8556;52.218;9.884;2023-02-03T10:50:14;8.17;;;1.80;;
16878;SDS011;8556;52.218;9.884;2023-02-03T10:52:42;4.20;;;2.00;;
16878;SDS011;8556;52.218;9.884;2023-02-03T10:55:27;4.57;;;1.90;;
16878;SDS011;8556;52.218;9.884;2023-02-03T10:57:56;9.37;;;2.73;;
16878;SDS011;8556;52.218;9.884;2023-02-03T11:00:26;7.53;;;2.30;;
16878;SDS011;8556;52.218;9.884;2023-02-03T11:02:55;4.40;;;1.63;;
16878;SDS011;8556;52.218;9.884;2023-02-03T11:05:23;4.97;;;1.57;;
16878;SDS011;8556;52.218;9.884;2023-02-03T11:07:50;5.77;;;2.00;;
16878;SDS011;8556;52.218;9.884;2023-02-03T11:10:28;8.00;;;1.93;;
16878;SDS011;8556;52.218;9.884;2023-02-03T11:15:54;13.33;;;4.13;;
16878;SDS011;8556;52.218;9.884;2023-02-03T11:18:25;6.27;;;3.00;;
16878;SDS011;8556;52.218;9.884;2023-02-03T11:20:58;7.50;;;2.50;;
16878;SDS011;8556;52.218;9.884;2023-02-03T11:23:25;6.70;;;1.87;;
16878;SDS011;8556;52.218;9.884;2023-02-03T11:25:52;8.50;;;2.60;;
16878;SDS011;8556;52.218;9.884;2023-02-03T11:28:19;5.53;;;2.30;;
16878;SDS011;8556;52.218;9.884;2023-02-03T11:30:46;4.90;;;2.80;;
16878;SDS011;8556;52.218;9.884;2023-02-03T11:33:23;8.53;;;2.67;;
16878;SDS011;8556;52.218;9.884;2023-02-03T11:35:53;12.57;;;3.20;;
16878;SDS011;8556;52.218;9.884;2023-02-03T11:38:27;10.67;;;2.47;;
16878;SDS011;8556;52.218;9.884;2023-02-03T11:40:57;10.87;;;3.10;;
16878;SDS011;8556;52.218;9.884;2023-02-03T11:43:25;7.30;;;3.47;;
16878;SDS011;8556;52.218;9.884;2023-02-03T11:45:58;9.73;;;2.53;;
16878;SDS011;8556;52.218;9.884;2023-02-03T11:48:27;10.03;;;3.77;;
16878;SDS011;8556;52.218;9.884;2023-02-03T11:51:02;9.57;;;3.00;;
16878;SDS011;8556;52.218;9.884;2023-02-03T11:53:40;11.33;;;2.93;;
16878;SDS011;8556;52.218;9.884;2023-02-03T11:56:21;10.70;;;2.40;;
16878;SDS011;8556;52.218;9.884;2023-02-03T11:59:07;9.73;;;2.93;;
16878;SDS011;8556;52.218;9.884;2023-02-03T12:04:52;13.03;;;3.80;;
16878;SDS011;8556;52.218;9.884;2023-02-03T12:07:45;17.67;;;4.13;;
16878;SDS011;8556;52.218;9.884;2023-02-03T12:10:26;14.50;;;4.77;;
16878;SDS011;8556;52.218;9.884;2023-02-03T12:12:59;16.83;;;3.23;;
16878;SDS011;8556;52.218;9.884;2023-02-03T12:15:40;15.67;;;3.10;;
16878;SDS011;8556;52.218;9.884;2023-02-03T12:18:25;17.73;;;4.30;;
16878;SDS011;8556;52.218;9.884;2023-02-03T12:21:05;15.07;;;3.57;;
16878;SDS011;8556;52.218;9.884;2023-02-03T12:23:43;15.77;;;2.83;;
16878;SDS011;8556;52.218;9.884;2023-02-03T12:26:18;12.67;;;3.90;;
16878;SDS011;8556;52.218;9.884;2023-02-03T12:28:50;16.67;;;3.73;;
16878;SDS011;8556;52.218;9.884;2023-02-03T12:31:26;11.10;;;3.20;;
16878;SDS011;8556;52.218;9.884;2023-02-03T12:34:00;18.57;;;3.43;;
16878;SDS011;8556;52.218;9.884;2023-02-03T12:36:32;13.53;;;2.90;;
16878;SDS011;8556;52.218;9.884;2023-02-03T12:39:05;11.10;;;3.80;;
16878;SDS011;8556;52.218;9.884;2023-02-03T12:41:37;14.80;;;3.00;;
16878;SDS011;8556;52.218;9.884;2023-02-03T12:44:12;13.23;;;3.60;;
16878;SDS011;8556;52.218;9.884;2023-02-03T12:46:43;17.70;;;3.57;;
16878;SDS011;8556;52.218;9.884;2023-02-03T12:49:18;17.37;;;4.23;;
16878;SDS011;8556;52.218;9.884;2023-02-03T12:51:55;18.87;;;4.23;;
16878;SDS011;8556;52.218;9.884;2023-02-03T12:54:28;19.70;;;3.60;;
16878;SDS011;8556;52.218;9.884;2023-02-03T12:57:05;20.83;;;3.97;;
16878;SDS011;8556;52.218;9.884;2023-02-03T12:59:39;18.13;;;4.00;;
16878;SDS011;8556;52.218;9.884;2023-02-03T13:02:10;16.83;;;4.10;;
16878;SDS011;8556;52.218;9.884;2023-02-03T13:04:46;16.93;;;4.27;;
16878;SDS011;8556;52.218;9.884;2023-02-03T13:07:20;13.17;;;3.13;;
16878;SDS011;8556;52.218;9.884;2023-02-03T13:09:53;20.50;;;4.67;;
16878;SDS011;8556;52.218;9.884;2023-02-03T13:12:26;18.67;;;5.43;;
16878;SDS011;8556;52.218;9.884;2023-02-03T13:14:56;21.97;;;5.50;;
16878;SDS011;8556;52.218;9.884;2023-02-03T13:17:29;19.30;;;5.73;;
16878;SDS011;8556;52.218;9.884;2023-02-03T13:20:03;19.57;;;4.73;;
16878;SDS011;8556;52.218;9.884;2023-02-03T13:22:38;14.83;;;4.30;;
16878;SDS011;8556;52.218;9.884;2023-02-03T13:25:07;14.07;;;4.37;;
16878;SDS011;8556;52.218;9.884;2023-02-03T13:27:44;15.87;;;3.60;;
16878;SDS011;8556;52.218;9.884;2023-02-03T13:30:21;15.80;;;4.87;;
16878;SDS011;8556;52.218;9.884;2023-02-03T13:36:19;15.23;;;3.57;;
16878;SDS011;8556;52.218;9.884;2023-02-03T13:39:14;17.30;;;4.17;;
16878;SDS011;8556;52.218;9.884;2023-02-03T13:41:50;13.93;;;4.40;;
16878;SDS011;8556;52.218;9.884;2023-02-03T13:44:20;13.57;;;3.03;;
16878;SDS011;8556;52.218;9.884;2023-02-03T13:46:50;16.87;;;4.30;;
16878;SDS011;8556;52.218;9.884;2023-02-03T13:49:20;11.83;;;3.40;;
16878;SDS011;8556;52.218;9.884;2023-02-03T13:51:51;15.87;;;4.33;;
16878;SDS011;8556;52.218;9.884;2023-02-03T13:54:21;15.40;;;3.43;;
16878;SDS011;8556;52.218;9.884;2023-02-03T13:56:53;16.50;;;4.37;;
16878;SDS011;8556;52.218;9.884;2023-02-03T13:59:26;18.60;;;3.77;;
16878;SDS011;8556;52.218;9.884;2023-02-03T14:05:06;19.20;;;3.97;;
16878;SDS011;8556;52.218;9.884;2023-02-03T14:07:50;13.60;;;3.60;;
16878;SDS011;8556;52.218;9.884;2023-02-03T14:10:19;14.40;;;3.10;;
16878;SDS011;8556;52.218;9.884;2023-02-03T14:12:54;13.10;;;2.93;;
16878;SDS011;8556;52.218;9.884;2023-02-03T14:15:27;17.03;;;3.17;;
16878;SDS011;8556;52.218;9.884;2023-02-03T14:17:57;16.30;;;3.43;;
16878;SDS011;8556;52.218;9.884;2023-02-03T14:23:16;15.77;;;3.77;;
16878;SDS011;8556;52.218;9.884;2023-02-03T14:25:48;21.20;;;3.97;;
16878;SDS011;8556;52.218;9.884;2023-02-03T14:28:19;21.17;;;4.13;;
16878;SDS011;8556;52.218;9.884;2023-02-03T14:36:44;14.33;;;2.90;;
16878;SDS011;8556;52.218;9.884;2023-02-03T14:45:26;17.13;;;3.70;;
16878;SDS011;8556;52.218;9.884;2023-02-03T14:48:06;11.87;;;2.87;;
16878;SDS011;8556;52.218;9.884;2023-02-03T14:50:44;11.37;;;2.83;;
16878;SDS011;8556;52.218;9.884;2023-02-03T14:53:26;14.70;;;3.20;;
16878;SDS011;8556;52.218;9.884;2023-02-03T14:56:11;9.73;;;2.97;;
16878;SDS011;8556;52.218;9.884;2023-02-03T14:58:47;18.10;;;3.20;;
16878;SDS011;8556;52.218;9.884;2023-02-03T15:01:25;18.37;;;3.70;;
16878;SDS011;8556;52.218;9.884;2023-02-03T15:04:21;15.10;;;3.17;;
16878;SDS011;8556;52.218;9.884;2023-02-03T15:06:51;16.60;;;2.63;;
16878;SDS011;8556;52.218;9.884;2023-02-03T15:09:21;14.37;;;2.90;;
16878;SDS011;8556;52.218;9.884;2023-02-03T15:11:52;13.00;;;2.67;;
16878;SDS011;8556;52.218;9.884;2023-02-03T15:14:21;17.50;;;3.60;;
16878;SDS011;8556;52.218;9.884;2023-02-03T15:16:52;13.17;;;2.67;;
16878;SDS011;8556;52.218;9.884;2023-02-03T15:19:31;14.73;;;3.60;;
16878;SDS011;8556;52.218;9.884;2023-02-03T15:21:59;16.00;;;3.57;;
16878;SDS011;8556;52.218;9.884;2023-02-03T15:24:33;13.47;;;2.70;;
16878;SDS011;8556;52.218;9.884;2023-02-03T15:27:01;19.30;;;3.07;;
16878;SDS011;8556;52.218;9.884;2023-02-03T15:29:29;15.53;;;3.63;;
16878;SDS011;8556;52.218;9.884;2023-02-03T15:32:01;17.70;;;3.70;;
16878;SDS011;8556;52.218;9.884;2023-02-03T15:34:34;14.50;;;3.03;;
16878;SDS011;8556;52.218;9.884;2023-02-03T15:37:06;12.43;;;2.40;;
16878;SDS011;8556;52.218;9.884;2023-02-03T15:39:39;14.73;;;2.77;;
16878;SDS011;8556;52.218;9.884;2023-02-03T15:42:15;13.40;;;2.97;;
16878;SDS011;8556;52.218;9.884;2023-02-03T15:44:46;18.07;;;3.10;;
16878;SDS011;8556;52.218;9.884;2023-02-03T15:47:18;11.00;;;2.80;;